KEED

Needles Airport

Needles, California, USA
METAR KEED 170156Z AUTO 26006KT 10SM CLR 14/M11 A2975 RMK AO2 SLP063 T01391111
Observed Flight Rules
Dec-17 @ 01:56 UTC (27 minutes ago) Visual Flight Rules
Wind Visibility Clouds
260° at 6 knots 10 miles
  • Clear skies
Temperatures Readings
Current 14°C / 57°F
Dewpoint -11°C / 12°F
Humidity 17%
Altimeter 29.75" Hg
Pressure 1006.3 hPa
Elevation 302
METAR KEED 170156Z AUTO 26006KT 10SM CLR 14/M11 A2975 RMK AO2 SLP063 T01391111
Observed Flight Rules
Dec-17 @ 01:56 UTC
(27 minutes ago)
VFR
Wind Visibility
260° at 6 knots 10 miles
Clouds
  • Clear skies
Temperature Dewpoint
14°C / 57°F -11°C / 12°F
Humidity Altimeter Pressure
17% 29.75" Hg 1006.3 hPa